EDFM

Details ICAO EDFM (MHG)
Name Mannheim City
Region Germany - Civil
Timezone Europe/Berlin (UTC+2.0)
Plans Departing 56
Arriving 46
Stats Elevation 309 ft / 94 m (AMSL)
Location 49.473059° 8.514394°
Runways 2
Magnetic Variation 2.392° E
Sunrise 2018-05-21 03:36:07 UTC / 2018-05-21 05:36:07 Local
Sunset 2018-05-21 19:11:48 UTC / 2018-05-21 21:11:48 Local
Advertisement - Login to hide

Runways

ID Width Length Bearing (true) Bearing (mag) Surface Threshold Offset Overrun Length
09 82 ft / 25 m 3,476 ft / 1,060 m 93.02° 90.63° Asphalt 0 ft / 0 m 0 ft / 0 m
09L 98 ft / 30 m 2,290 ft / 698 m 93.00° 90.61° Grass 246 ft / 75 m 0 ft / 0 m
27 82 ft / 25 m 3,476 ft / 1,060 m 273.04° 270.65° Asphalt 180 ft / 55 m 0 ft / 0 m
27R 98 ft / 30 m 2,290 ft / 698 m 273.00° 270.61° Grass 82 ft / 25 m 0 ft / 0 m

Approach Navaids

Runway Type Ident Frequency Range Bearing (true) Bearing (mag) Slope Elevation
27 Localiser IMAW 108.55 MHz 18 nm / 33 km 274.02° 271.63° - 309 ft / 94 m (AMSL)

Map

Weather


0- 5 10 15 20 25 30 35+ Temperature / ° C

Clouds and Precipitation
Forecast for 2018-05-21 06:00 UTC. Updated 2 hours ago

Ground ~20,000 ft ~40,000 ft Winds

METAR

EDFM 210720Z 12006KT 080V150 CAVOK 19/09 Q1015

TAF

Not found

Frequencies

Recorded 136.55 MHz MANNHEIM ATIS
Tower 129.78 MHz MANNHEIM TWR
Tower 122.50 MHz MANNHEIM INFO
Warning: Do not use this data for real-world aviation or navigation. No guarantee of current accuracy is given.